Airport View

Enter AWOS ICAO identifier for current METAR.

ex. KFNL

KLMO 251035Z AUTO 03009KT 3SM -SN OVC010 M07/M10 A3016 RMK AO2 T10711096

25 Oct 2020 10:53

Frequency: 120.000

Phone: 303-684-7545

Other Area AWOS: KBDU - KEIK - KBJC - KFNL

TAF AMD KBJC 250904Z 2509/2606 01012KT 3SM -SN BR BKN007 OVC012 FM251300 36012G18KT 2SM -SN BR OVC008 FM251800 36010KT 1SM -SN BR OVC006 TEMPO 2520/2524 1/2SM SN VV002 FM260400 02008KT 2SM -SN BR BKN008 OVC012